createdAt,value
2022-10-17T00:03:01.021Z,99211.38
2022-10-17T00:06:11.205Z,99213.28
2022-10-17T00:09:12.954Z,99217.47
2022-10-17T00:12:14.716Z,99216.38
2022-10-17T00:15:19.075Z,99217.13
2022-10-17T00:18:20.768Z,99212.34
2022-10-17T00:21:26.268Z,99214.50
2022-10-17T00:24:28.118Z,99204.59
2022-10-17T00:27:30.022Z,99210.91
2022-10-17T00:30:33.009Z,99202.56
2022-10-17T00:33:35.794Z,99212.09
2022-10-17T00:36:38.225Z,99211.38
2022-10-17T00:39:39.953Z,99217.34
2022-10-17T00:42:42.482Z,99209.00
2022-10-17T00:45:44.431Z,99220.22
2022-10-17T00:48:49.213Z,99221.06
2022-10-17T00:51:53.952Z,99221.38
2022-10-17T00:54:59.693Z,99225.69
2022-10-17T00:58:03.978Z,99232.69
2022-10-17T01:01:07.506Z,99228.41
2022-10-17T01:04:10.370Z,99232.31
2022-10-17T01:07:14.912Z,99235.41
2022-10-17T01:10:17.583Z,99228.78
2022-10-17T01:13:31.388Z,99232.59
2022-10-17T01:16:49.394Z,99229.47
2022-10-17T01:20:18.099Z,99228.53
2022-10-17T01:23:50.481Z,99231.16
2022-10-17T01:27:17.239Z,99227.81
2022-10-17T01:30:43.955Z,99226.84
2022-10-17T01:34:06.359Z,99219.56
2022-10-17T01:37:39.743Z,99220.41
2022-10-17T01:40:54.237Z,99217.53
2022-10-17T01:44:00.813Z,99219.81
2022-10-17T01:47:06.493Z,99216.81
2022-10-17T01:50:15.372Z,99218.97
2022-10-17T01:53:26.071Z,99212.75
2022-10-17T01:56:29.722Z,99215.25
2022-10-17T01:59:40.092Z,99214.19
2022-10-17T02:02:44.227Z,99214.69
2022-10-17T02:05:46.243Z,99208.72
2022-10-17T02:08:50.985Z,99213.69
2022-10-17T02:12:25.289Z,99218.09
2022-10-17T02:15:55.101Z,99215.56
2022-10-17T02:19:15.795Z,99211.53
2022-10-17T02:22:42.874Z,99212.94
2022-10-17T02:25:54.660Z,99202.72
2022-10-17T02:28:56.697Z,99209.63
2022-10-17T02:32:11.896Z,99212.75
2022-10-17T02:35:15.303Z,99210.59
2022-10-17T02:38:18.537Z,99218.84
2022-10-17T02:41:22.340Z,99219.88
2022-10-17T02:44:27.126Z,99224.63
2022-10-17T02:47:39.573Z,99234.66
2022-10-17T02:51:07.641Z,99224.41
2022-10-17T02:54:15.767Z,99231.31
2022-10-17T02:57:30.876Z,99231.91
2022-10-17T03:00:34.235Z,99237.88
2022-10-17T03:03:36.103Z,99228.38
2022-10-17T03:06:38.590Z,99232.56
2022-10-17T03:09:50.202Z,99232.94
2022-10-17T03:12:53.396Z,99238.94
2022-10-17T03:15:58.961Z,99231.28
2022-10-17T03:19:01.131Z,99234.97
2022-10-17T03:22:03.658Z,99239.88
2022-10-17T03:25:07.422Z,99241.94
2022-10-17T03:28:12.409Z,99246.13
2022-10-17T03:31:16.185Z,99246.44
2022-10-17T03:34:19.055Z,99253.09
2022-10-17T03:37:21.909Z,99255.94
2022-10-17T03:40:24.903Z,99269.78
2022-10-17T03:43:29.198Z,99266.72
2022-10-17T03:46:31.463Z,99260.59
2022-10-17T03:49:35.351Z,99261.78
2022-10-17T03:52:37.553Z,99270.84
2022-10-17T03:55:39.661Z,99265.25
2022-10-17T03:58:46.242Z,99266.22
2022-10-17T04:01:49.325Z,99266.09
2022-10-17T04:04:51.505Z,99272.72
2022-10-17T04:07:53.513Z,99271.06
2022-10-17T04:11:08.956Z,99273.47
2022-10-17T04:14:11.504Z,99275.09
2022-10-17T04:17:14.563Z,99283.13
2022-10-17T04:20:17.046Z,99281.22
2022-10-17T04:23:19.491Z,99281.75
2022-10-17T04:26:21.609Z,99287.47
2022-10-17T04:29:25.524Z,99293.16
2022-10-17T04:32:32.010Z,99290.66
2022-10-17T04:35:42.797Z,99291.78
2022-10-17T04:38:46.213Z,99292.72
2022-10-17T04:41:48.059Z,99299.66
2022-10-17T04:44:51.627Z,99303.41
2022-10-17T04:47:54.195Z,99309.97
2022-10-17T04:50:56.640Z,99303.63
2022-10-17T04:54:17.696Z,99305.34
2022-10-17T04:57:23.961Z,99293.84
2022-10-17T05:00:34.703Z,99303.69
2022-10-17T05:03:46.820Z,99304.72
2022-10-17T05:06:49.096Z,99304.59
2022-10-17T05:10:09.960Z,99311.94
2022-10-17T05:13:13.782Z,99311.94
2022-10-17T05:16:16.388Z,99316.88
2022-10-17T05:19:19.202Z,99319.19
2022-10-17T05:22:24.616Z,99323.50
2022-10-17T05:25:27.008Z,99331.78
2022-10-17T05:28:29.285Z,99340.72
2022-10-17T05:31:35.819Z,99338.50
2022-10-17T05:34:37.771Z,99340.47
2022-10-17T05:37:41.779Z,99341.50
2022-10-17T05:40:45.165Z,99337.03
2022-10-17T05:43:47.969Z,99346.63
2022-10-17T05:46:54.426Z,99355.72
2022-10-17T05:49:57.286Z,99356.59
2022-10-17T05:53:07.120Z,99356.06
2022-10-17T05:56:15.068Z,99369.38
2022-10-17T05:59:18.135Z,99373.00
2022-10-17T06:02:32.370Z,99378.63
2022-10-17T06:05:35.664Z,99380.06
2022-10-17T06:08:38.661Z,99388.28
2022-10-17T06:11:43.259Z,99384.25
2022-10-17T06:14:46.037Z,99393.78
2022-10-17T06:17:49.236Z,99389.78
2022-10-17T06:20:51.382Z,99393.25
2022-10-17T06:23:54.853Z,99392.50
2022-10-17T06:27:09.354Z,99400.56
2022-10-17T06:30:16.239Z,99401.44
2022-10-17T06:33:21.405Z,99397.78
2022-10-17T06:36:23.679Z,99400.81
2022-10-17T06:39:27.457Z,99410.63
2022-10-17T06:42:39.532Z,99408.78
2022-10-17T06:45:59.976Z,99421.41
2022-10-17T06:49:10.114Z,99419.59
2022-10-17T06:52:17.649Z,99428.13
2022-10-17T06:55:43.732Z,99430.34
2022-10-17T06:58:59.128Z,99437.13
2022-10-17T07:02:06.547Z,99435.81
2022-10-17T07:05:08.990Z,99437.97
2022-10-17T07:08:11.564Z,99434.41
2022-10-17T07:11:19.465Z,99445.22
2022-10-17T07:14:24.095Z,99447.22
2022-10-17T07:17:25.808Z,99447.53
2022-10-17T07:20:28.142Z,99448.38
2022-10-17T07:23:30.975Z,99450.09
2022-10-17T07:26:33.119Z,99447.56
2022-10-17T07:29:36.238Z,99458.41
2022-10-17T07:32:47.507Z,99461.50
2022-10-17T07:35:49.449Z,99460.81
2022-10-17T07:38:51.319Z,99464.28
2022-10-17T07:41:54.560Z,99464.84
2022-10-17T07:44:58.357Z,99466.41
2022-10-17T07:48:02.112Z,99468.75
2022-10-17T07:51:07.503Z,99469.28
2022-10-17T07:54:09.410Z,99469.25
2022-10-17T07:57:11.276Z,99465.75
2022-10-17T08:00:13.298Z,99467.63
2022-10-17T08:03:16.096Z,99469.59
2022-10-17T08:06:18.887Z,99469.00
2022-10-17T08:09:20.958Z,99478.72
2022-10-17T08:12:22.798Z,99470.81
2022-10-17T08:15:29.401Z,99471.78
2022-10-17T08:18:34.579Z,99473.13
2022-10-17T08:21:36.460Z,99479.19
2022-10-17T08:24:38.110Z,99479.22
2022-10-17T08:27:39.898Z,99482.44
2022-10-17T08:30:41.630Z,99470.88
2022-10-17T08:33:43.412Z,99472.47
2022-10-17T08:36:45.163Z,99473.28
2022-10-17T08:39:47.112Z,99471.78
2022-10-17T08:43:04.105Z,99482.09
2022-10-17T08:46:07.133Z,99472.72
2022-10-17T08:49:19.844Z,99474.81
2022-10-17T08:53:03.172Z,99468.06
2022-10-17T08:56:30.326Z,99475.50
2022-10-17T08:59:43.531Z,99478.28
2022-10-17T09:03:02.046Z,99479.88
2022-10-17T09:06:25.299Z,99477.97
2022-10-17T09:09:34.328Z,99479.47
2022-10-17T09:12:48.637Z,99474.44
2022-10-17T09:16:07.600Z,99477.81
2022-10-17T09:19:20.242Z,99476.06
2022-10-17T09:22:25.452Z,99470.34
2022-10-17T09:25:28.650Z,99468.50
2022-10-17T09:28:36.639Z,99471.47
2022-10-17T09:31:45.603Z,99475.97
2022-10-17T09:34:47.481Z,99470.75
2022-10-17T09:37:51.131Z,99472.97
2022-10-17T09:40:58.650Z,99471.34
2022-10-17T09:44:15.577Z,99475.78
2022-10-17T09:47:23.998Z,99478.50
2022-10-17T09:50:28.965Z,99473.47
2022-10-17T09:53:35.347Z,99471.19
2022-10-17T09:57:01.142Z,99478.50
2022-10-17T10:00:05.979Z,99467.53
2022-10-17T10:03:23.486Z,99468.56
2022-10-17T10:06:25.277Z,99471.03
2022-10-17T10:09:30.561Z,99472.53
2022-10-17T10:12:38.346Z,99475.41
2022-10-17T10:15:42.454Z,99470.22
2022-10-17T10:18:47.439Z,99470.38
2022-10-17T10:21:57.408Z,99466.75
2022-10-17T10:25:11.463Z,99462.88
2022-10-17T10:28:16.371Z,99462.22
2022-10-17T10:31:29.681Z,99460.88
2022-10-17T10:34:34.532Z,99468.38
2022-10-17T10:37:46.440Z,99463.88
2022-10-17T10:40:50.506Z,99463.91
2022-10-17T10:43:53.348Z,99458.91
2022-10-17T10:47:20.187Z,99456.84
2022-10-17T10:50:40.588Z,99452.19
2022-10-17T10:54:21.596Z,99451.31
2022-10-17T10:57:27.117Z,99450.56
2022-10-17T11:00:31.427Z,99451.63
2022-10-17T11:03:42.471Z,99450.53
2022-10-17T11:06:45.945Z,99454.19
2022-10-17T11:10:22.074Z,99445.41
2022-10-17T11:13:29.179Z,99454.38
2022-10-17T11:16:44.645Z,99450.78
2022-10-17T11:19:56.582Z,99443.59
2022-10-17T11:23:15.009Z,99448.47
2022-10-17T11:26:26.148Z,99440.75
2022-10-17T11:29:31.086Z,99437.69
2022-10-17T11:32:48.904Z,99434.00
2022-10-17T11:35:52.774Z,99430.81
2022-10-17T11:39:06.154Z,99434.00
2022-10-17T11:42:13.037Z,99427.97
2022-10-17T11:45:18.700Z,99427.63
2022-10-17T11:48:28.653Z,99421.56
2022-10-17T11:55:30.962Z,99418.13
2022-10-17T11:58:50.451Z,99412.91
2022-10-17T12:01:56.371Z,99415.28
2022-10-17T12:05:10.329Z,99409.66
2022-10-17T12:08:32.004Z,99405.19
2022-10-17T12:11:46.365Z,99400.47
2022-10-17T12:14:48.111Z,99404.56
2022-10-17T12:18:04.000Z,99397.63
2022-10-17T12:21:06.005Z,99398.66
2022-10-17T12:24:45.832Z,99402.66
2022-10-17T12:27:50.242Z,99395.69
2022-10-17T12:31:02.392Z,99387.81
2022-10-17T12:34:05.076Z,99389.66
2022-10-17T12:37:11.563Z,99392.69
2022-10-17T12:40:35.453Z,99390.28
2022-10-17T12:43:54.955Z,99379.28
2022-10-17T12:47:05.823Z,99371.94
2022-10-17T12:50:46.237Z,99371.69
2022-10-17T12:53:57.461Z,99376.16
2022-10-17T12:56:59.238Z,99379.50
2022-10-17T13:00:23.059Z,99382.53
2022-10-17T13:03:29.411Z,99364.75
2022-10-17T13:06:32.294Z,99367.16
2022-10-17T13:09:39.809Z,99359.59
2022-10-17T13:12:41.757Z,99371.31
2022-10-17T13:15:52.360Z,99365.72
2022-10-17T13:18:54.319Z,99365.84
2022-10-17T13:22:06.432Z,99370.31
2022-10-17T13:25:17.121Z,99369.59
2022-10-17T13:28:19.026Z,99369.03
2022-10-17T13:31:37.419Z,99375.13
2022-10-17T13:34:39.326Z,99372.34
2022-10-17T13:37:43.202Z,99363.41
2022-10-17T13:40:50.023Z,99363.94
2022-10-17T13:43:53.482Z,99360.44
2022-10-17T13:46:55.326Z,99364.03
2022-10-17T13:49:58.497Z,99361.09
2022-10-17T13:53:18.525Z,99363.72
2022-10-17T13:56:29.515Z,99369.19
2022-10-17T13:59:43.067Z,99367.84
2022-10-17T14:02:45.288Z,99370.53
2022-10-17T14:06:16.636Z,99367.13
2022-10-17T14:09:25.694Z,99362.44
2022-10-17T14:12:27.965Z,99375.09
2022-10-17T14:15:31.774Z,99367.44
2022-10-17T14:18:36.688Z,99364.41
2022-10-17T14:21:44.319Z,99358.81
2022-10-17T14:24:47.315Z,99356.97
2022-10-17T14:28:17.112Z,99359.25
2022-10-17T14:31:22.526Z,99362.28
2022-10-17T14:34:29.298Z,99364.97
2022-10-17T14:37:48.168Z,99365.88
2022-10-17T14:40:51.758Z,99371.66
2022-10-17T14:43:59.850Z,99375.34
2022-10-17T14:47:30.118Z,99372.66
2022-10-17T14:50:29.423Z,99368.44
2022-10-17T14:53:31.478Z,99374.56
2022-10-17T14:56:41.767Z,99378.00
2022-10-17T14:59:59.384Z,99384.06
2022-10-17T15:03:01.556Z,99372.19
2022-10-17T15:06:20.924Z,99372.88
2022-10-17T15:09:24.073Z,99375.66
2022-10-17T15:12:26.973Z,99370.03
2022-10-17T15:15:30.582Z,99371.44
2022-10-17T15:18:32.713Z,99380.19
2022-10-17T15:21:39.517Z,99373.75
2022-10-17T15:24:46.586Z,99374.97
2022-10-17T15:27:48.427Z,99374.41
2022-10-17T15:30:50.453Z,99375.94
2022-10-17T15:33:53.733Z,99374.31
2022-10-17T15:36:55.718Z,99380.78
2022-10-17T15:39:58.114Z,99378.31
2022-10-17T15:42:59.998Z,99382.13
2022-10-17T15:46:02.022Z,99378.31
2022-10-17T15:49:10.839Z,99376.63
2022-10-17T15:52:12.891Z,99377.44
2022-10-17T15:55:14.899Z,99383.75
2022-10-17T15:58:18.097Z,99389.69
2022-10-17T16:01:39.060Z,99390.97
2022-10-17T16:04:41.465Z,99391.56
2022-10-17T16:07:46.400Z,99394.53
2022-10-17T16:10:48.701Z,99390.34
2022-10-17T16:13:53.007Z,99391.22
2022-10-17T16:16:54.962Z,99404.94
2022-10-17T16:19:56.957Z,99406.34
2022-10-17T16:23:02.553Z,99406.94
2022-10-17T16:26:04.831Z,99404.78
2022-10-17T16:29:07.066Z,99406.91
2022-10-17T16:32:09.891Z,99409.13
2022-10-17T16:35:17.077Z,99415.78
2022-10-17T16:38:19.044Z,99413.84
2022-10-17T16:41:24.074Z,99423.31
2022-10-17T16:44:26.109Z,99419.00
2022-10-17T16:47:28.235Z,99422.66
2022-10-17T16:50:31.437Z,99420.63
2022-10-17T16:53:33.624Z,99422.13
2022-10-17T16:56:35.680Z,99418.31
2022-10-17T16:59:37.817Z,99412.56
2022-10-17T17:02:39.815Z,99417.94
2022-10-17T17:05:41.971Z,99413.41
2022-10-17T17:08:43.978Z,99408.22
2022-10-17T17:11:46.603Z,99410.50
2022-10-17T17:14:49.153Z,99421.94
2022-10-17T17:17:55.260Z,99419.00
2022-10-17T17:21:00.455Z,99423.91
2022-10-17T17:24:05.131Z,99430.09
2022-10-17T17:27:09.965Z,99421.28
2022-10-17T17:30:15.781Z,99423.38
2022-10-17T17:33:24.364Z,99427.91
2022-10-17T17:36:36.952Z,99417.63
2022-10-17T17:39:42.709Z,99422.41
2022-10-17T17:42:47.006Z,99416.41
2022-10-17T17:45:49.410Z,99419.19
2022-10-17T17:48:52.516Z,99418.94
2022-10-17T17:51:54.864Z,99419.09
2022-10-17T17:54:57.775Z,99423.56
2022-10-17T17:58:00.143Z,99426.34
2022-10-17T18:01:09.185Z,99419.09
2022-10-17T18:04:12.334Z,99425.91
2022-10-17T18:07:14.753Z,99423.69
2022-10-17T18:10:17.335Z,99429.25
2022-10-17T18:13:22.237Z,99426.75
2022-10-17T18:16:25.731Z,99428.69
2022-10-17T18:19:28.772Z,99426.59
2022-10-17T18:22:31.594Z,99437.31
2022-10-17T18:25:34.552Z,99429.94
2022-10-17T18:28:38.881Z,99426.47
2022-10-17T18:31:41.250Z,99427.59
2022-10-17T18:34:44.048Z,99423.25
2022-10-17T18:37:46.451Z,99430.88
2022-10-17T18:40:50.734Z,99435.50
2022-10-17T18:43:57.934Z,99431.97
2022-10-17T18:47:03.931Z,99435.59
2022-10-17T18:50:07.088Z,99429.91
2022-10-17T18:53:09.707Z,99432.09
2022-10-17T18:56:13.026Z,99433.63
2022-10-17T18:59:15.695Z,99428.16
2022-10-17T19:02:17.912Z,99433.31
2022-10-17T19:05:20.222Z,99429.69
2022-10-17T19:08:23.278Z,99440.81
2022-10-17T19:11:27.504Z,99432.16
2022-10-17T19:14:30.854Z,99431.84
2022-10-17T19:17:33.698Z,99426.50
2022-10-17T19:20:36.299Z,99433.53
2022-10-17T19:23:38.983Z,99428.25
2022-10-17T19:26:43.199Z,99426.78
2022-10-17T19:29:45.672Z,99436.00
2022-10-17T19:32:49.689Z,99428.88
2022-10-17T19:36:00.056Z,99431.25
2022-10-17T19:39:06.053Z,99435.63
2022-10-17T19:42:08.369Z,99428.84
2022-10-17T19:45:11.109Z,99430.44
2022-10-17T19:48:13.148Z,99424.78
2022-10-17T19:51:16.888Z,99430.16
2022-10-17T19:54:20.462Z,99429.19
2022-10-17T19:57:23.453Z,99436.50
2022-10-17T20:00:26.074Z,99430.09
2022-10-17T20:03:29.724Z,99438.63
2022-10-17T20:06:33.829Z,99441.19
2022-10-17T20:09:36.123Z,99433.06
2022-10-17T20:12:38.713Z,99442.31
2022-10-17T20:15:41.157Z,99439.34
2022-10-17T20:18:44.105Z,99442.50
2022-10-17T20:21:45.994Z,99439.31
2022-10-17T20:24:49.129Z,99442.69
2022-10-17T20:27:52.066Z,99444.13
2022-10-17T20:30:54.455Z,99442.75
2022-10-17T20:33:57.769Z,99447.66
2022-10-17T20:36:59.700Z,99448.84
2022-10-17T20:40:32.870Z,99447.84
2022-10-17T20:43:24.669Z,99450.38
2022-10-17T20:46:36.754Z,99450.13
2022-10-17T20:49:39.424Z,99439.84
2022-10-17T20:52:41.517Z,99433.50
2022-10-17T20:55:44.302Z,99434.59
2022-10-17T20:58:51.243Z,99435.06
2022-10-17T21:01:54.492Z,99436.88
2022-10-17T21:04:56.699Z,99428.66
2022-10-17T21:07:58.516Z,99432.69
2022-10-17T21:11:17.942Z,99431.72
2022-10-17T21:14:20.007Z,99433.91
2022-10-17T21:17:22.491Z,99436.03
2022-10-17T21:20:24.496Z,99430.53
2022-10-17T21:23:26.580Z,99428.41
2022-10-17T21:26:29.555Z,99435.81
2022-10-17T21:29:31.482Z,99428.78
2022-10-17T21:32:51.155Z,99437.91
2022-10-17T21:35:55.260Z,99430.34
2022-10-17T21:38:58.337Z,99427.47
2022-10-17T21:42:00.410Z,99426.78
2022-10-17T21:45:04.759Z,99433.94
2022-10-17T21:48:13.486Z,99427.25
2022-10-17T21:51:17.399Z,99424.88
2022-10-17T21:54:20.138Z,99422.38
2022-10-17T21:57:22.698Z,99413.88
2022-10-17T22:00:24.797Z,99416.16
2022-10-17T22:03:26.625Z,99415.31
2022-10-17T22:06:39.673Z,99414.00
2022-10-17T22:09:42.819Z,99414.59
2022-10-17T22:12:44.565Z,99416.03
2022-10-17T22:15:46.353Z,99412.56
2022-10-17T22:18:48.169Z,99403.13
2022-10-17T22:21:50.934Z,99400.50
2022-10-17T22:24:53.049Z,99408.00
2022-10-17T22:27:54.835Z,99397.16
2022-10-17T22:30:57.706Z,99393.81
2022-10-17T22:33:59.630Z,99392.38
2022-10-17T22:37:01.450Z,99395.47
2022-10-17T22:40:05.004Z,99397.13
2022-10-17T22:43:06.771Z,99397.50
2022-10-17T22:46:17.373Z,99394.03
2022-10-17T22:49:19.182Z,99397.03
2022-10-17T22:52:21.305Z,99391.72
2022-10-17T22:55:23.140Z,99395.91
2022-10-17T22:58:25.499Z,99398.91
2022-10-17T23:01:27.717Z,99396.38
2022-10-17T23:04:29.454Z,99396.84
2022-10-17T23:07:31.380Z,99391.59
2022-10-17T23:10:33.655Z,99385.28
2022-10-17T23:13:35.842Z,99382.78
2022-10-17T23:16:37.908Z,99378.38
2022-10-17T23:19:40.445Z,99378.22
2022-10-17T23:22:42.953Z,99365.09
2022-10-17T23:25:45.057Z,99372.16
2022-10-17T23:28:46.959Z,99363.44
2022-10-17T23:31:50.395Z,99363.91
2022-10-17T23:34:52.185Z,99359.72
2022-10-17T23:37:54.441Z,99360.31
2022-10-17T23:40:56.323Z,99365.56
2022-10-17T23:43:58.391Z,99363.41
2022-10-17T23:47:00.379Z,99367.41
2022-10-17T23:50:02.350Z,99366.47
2022-10-17T23:53:04.194Z,99364.88
2022-10-17T23:56:07.847Z,99363.22
2022-10-17T23:59:09.732Z,99362.63
